Time;durP1;ratioP1;P1;durP2;ratioP2;P2;SDS_P1;SDS_P2;PMS_P1;PMS_P2;Temp;Humidity;BMP_temperature;BMP_pressure;BME280_temperature;BME280_humidity;BME280_pressure;Samples;Min_cycle;Max_cycle;Signal;HPM_P1;HPM_P2
2021/07/04 00:00:28;;;;;;;3.67;2.47;;;24.90;96.70;;;;;;5003973;28;20034;-74
2021/07/04 00:02:58;;;;;;;4.32;2.47;;;25.00;96.70;;;;;;5002775;28;20049;-74
2021/07/04 00:05:29;;;;;;;4.13;2.60;;;25.00;96.70;;;;;;5000283;28;20464;-74
2021/07/04 00:07:58;;;;;;;4.78;2.90;;;25.00;96.70;;;;;;5007028;28;20038;-74
2021/07/04 00:10:31;;;;;;;4.55;2.33;;;25.00;96.70;;;;;;5007466;28;20065;-74
2021/07/04 00:13:00;;;;;;;5.97;2.83;;;24.90;96.70;;;;;;5018124;28;20053;-74
2021/07/04 00:15:34;;;;;;;6.05;2.75;;;24.90;96.70;;;;;;4985847;28;20042;-74
2021/07/04 00:18:03;;;;;;;6.28;2.90;;;24.80;96.70;;;;;;5002421;28;20092;-74
2021/07/04 00:20:33;;;;;;;7.43;3.05;;;24.80;96.70;;;;;;5003393;28;20508;-74
2021/07/04 00:23:01;;;;;;;4.50;2.70;;;24.80;96.70;;;;;;5007601;28;20487;-74
2021/07/04 00:25:30;;;;;;;5.95;2.75;;;24.90;96.70;;;;;;4990016;28;20507;-75
2021/07/04 00:27:58;;;;;;;3.85;2.83;;;24.80;96.70;;;;;;5009643;28;20041;-74
2021/07/04 00:30:27;;;;;;;5.45;3.45;;;24.90;96.70;;;;;;5009408;28;20103;-74
2021/07/04 00:32:55;;;;;;;3.55;2.65;;;24.80;96.70;;;;;;5002487;28;20084;-74
2021/07/04 00:35:25;;;;;;;5.30;2.78;;;24.70;96.70;;;;;;5007794;28;20042;-75
2021/07/04 00:37:55;;;;;;;5.10;2.70;;;24.70;96.70;;;;;;5007907;28;20125;-74
2021/07/04 00:40:24;;;;;;;5.25;2.90;;;24.70;96.70;;;;;;5008746;28;20037;-74
2021/07/04 00:42:53;;;;;;;5.28;2.80;;;24.60;96.70;;;;;;5022008;28;20084;-73
2021/07/04 00:45:24;;;;;;;5.00;3.00;;;24.60;96.70;;;;;;5007443;28;20038;-73
2021/07/04 00:47:53;;;;;;;4.95;2.90;;;24.50;96.70;;;;;;4988949;28;20152;-74
2021/07/04 00:50:25;;;;;;;6.07;2.85;;;24.50;96.70;;;;;;5023678;28;20470;-73
2021/07/04 00:52:58;;;;;;;7.00;3.30;;;24.60;96.70;;;;;;5006572;28;20069;-73
2021/07/04 00:55:31;;;;;;;6.30;2.60;;;24.50;96.70;;;;;;4990502;28;20144;-74
2021/07/04 00:58:05;;;;;;;5.53;3.08;;;24.40;96.70;;;;;;5001030;28;20145;-73
2021/07/04 01:00:37;;;;;;;5.82;2.88;;;24.30;96.70;;;;;;5005480;28;20045;-73
2021/07/04 01:03:06;;;;;;;5.30;2.63;;;24.30;96.70;;;;;;5005815;28;20046;-73
2021/07/04 01:05:40;;;;;;;4.55;2.90;;;24.30;96.70;;;;;;5008499;28;20152;-73
2021/07/04 01:08:12;;;;;;;5.97;3.10;;;24.20;96.70;;;;;;4996118;28;20140;-73
2021/07/04 01:10:41;;;;;;;7.22;2.97;;;24.30;96.70;;;;;;5004045;28;20045;-73
2021/07/04 01:13:16;;;;;;;6.00;2.78;;;24.20;96.70;;;;;;5001456;28;20469;-73
2021/07/04 01:15:53;;;;;;;3.72;2.70;;;24.20;96.70;;;;;;5021223;28;20072;-74
2021/07/04 01:18:22;;;;;;;4.88;2.83;;;24.20;96.70;;;;;;5005011;28;20069;-74
2021/07/04 01:21:01;;;;;;;6.22;3.22;;;24.30;96.70;;;;;;5007194;28;20639;-73
2021/07/04 01:23:32;;;;;;;4.35;2.83;;;24.20;96.70;;;;;;5005268;28;20345;-73
2021/07/04 01:26:03;;;;;;;4.78;3.13;;;24.20;96.70;;;;;;5004778;28;20506;-73
2021/07/04 01:28:34;;;;;;;8.63;3.30;;;24.20;96.70;;;;;;5006107;28;20080;-73
2021/07/04 01:31:06;;;;;;;6.15;3.08;;;24.10;96.70;;;;;;5005242;28;20609;-73
2021/07/04 01:33:38;;;;;;;9.75;3.15;;;24.10;96.70;;;;;;5006637;28;20041;-73
2021/07/04 01:36:22;;;;;;;4.68;3.05;;;24.00;96.70;;;;;;5004144;28;20459;-73
2021/07/04 01:38:53;;;;;;;5.05;3.13;;;23.90;96.70;;;;;;5000922;28;20046;-73
2021/07/04 01:41:22;;;;;;;4.45;3.05;;;23.90;96.70;;;;;;5004978;28;20522;-73
2021/07/04 01:43:52;;;;;;;6.53;3.13;;;23.90;96.70;;;;;;5006016;28;20104;-73
2021/07/04 01:46:25;;;;;;;6.68;3.13;;;23.80;96.70;;;;;;5003530;28;20280;-73
2021/07/04 01:49:00;;;;;;;6.90;3.07;;;23.90;96.70;;;;;;5007792;28;20069;-73
2021/07/04 01:51:29;;;;;;;5.57;2.78;;;23.90;96.70;;;;;;5005421;28;20108;-73
2021/07/04 01:53:58;;;;;;;5.00;3.25;;;23.90;96.70;;;;;;5008924;28;20329;-73
2021/07/04 01:56:35;;;;;;;4.68;2.90;;;23.90;96.70;;;;;;5024223;28;20048;-73
2021/07/04 01:59:05;;;;;;;3.80;2.70;;;23.90;96.70;;;;;;5003783;28;20156;-73
2021/07/04 02:01:52;;;;;;;;;;;23.90;96.70;;;;;;5010050;28;20104;-73
2021/07/04 02:04:22;;;;;;;4.25;2.92;;;23.70;96.70;;;;;;5001073;28;19925;-73
2021/07/04 02:07:04;;;;;;;3.90;2.90;;;23.60;96.70;;;;;;5020062;28;20063;-73
2021/07/04 02:09:34;;;;;;;4.50;2.92;;;23.50;96.70;;;;;;5012071;28;20183;-73
2021/07/04 02:12:04;;;;;;;5.63;3.10;;;23.40;96.70;;;;;;5011190;28;20416;-73
2021/07/04 02:14:36;;;;;;;4.75;2.88;;;23.30;96.70;;;;;;5004145;28;20046;-73
2021/07/04 02:17:29;;;;;;;5.07;3.15;;;23.30;96.70;;;;;;5009030;28;20065;-73
2021/07/04 02:20:34;;;;;;;5.07;2.95;;;23.20;96.70;;;;;;5005817;28;20042;-73
2021/07/04 02:23:36;;;;;;;6.15;2.95;;;23.20;96.70;;;;;;4989983;28;20049;-73
2021/07/04 02:26:24;;;;;;;5.07;2.80;;;23.30;96.70;;;;;;5005977;28;20060;-73
2021/07/04 02:28:57;;;;;;;5.57;2.95;;;23.40;96.70;;;;;;5006211;28;20056;-73
2021/07/04 02:31:33;;;;;;;4.72;3.03;;;23.40;96.70;;;;;;5004037;28;20034;-73
2021/07/04 02:34:03;;;;;;;4.00;2.60;;;23.40;96.70;;;;;;5007789;28;20049;-73
2021/07/04 02:36:38;;;;;;;4.47;3.17;;;23.40;96.70;;;;;;5002436;28;20134;-73
2021/07/04 02:39:17;;;;;;;4.65;2.65;;;23.40;96.70;;;;;;5005306;28;20037;-73
2021/07/04 02:41:47;;;;;;;4.75;2.78;;;23.40;96.70;;;;;;5006349;28;20080;-73
2021/07/04 02:44:18;;;;;;;4.55;2.95;;;23.40;96.70;;;;;;5002770;28;20045;-73
2021/07/04 02:46:46;;;;;;;7.28;2.55;;;23.40;96.70;;;;;;5009455;28;20053;-73
2021/07/04 02:49:14;;;;;;;6.03;2.80;;;23.30;96.70;;;;;;5001863;28;20516;-73
2021/07/04 02:51:47;;;;;;;5.15;2.50;;;23.20;96.70;;;;;;5005289;28;20046;-73
2021/07/04 02:54:15;;;;;;;8.30;3.38;;;23.20;96.70;;;;;;5025250;28;20053;-73
2021/07/04 02:57:08;;;;;;;5.00;2.92;;;23.20;96.70;;;;;;5020951;28;20072;-73
2021/07/04 02:59:40;;;;;;;4.78;2.55;;;23.20;96.70;;;;;;5009610;28;20053;-73
2021/07/04 03:02:09;;;;;;;4.15;2.63;;;23.20;96.70;;;;;;5003407;28;20053;-74
2021/07/04 03:04:41;;;;;;;6.22;2.63;;;23.00;96.70;;;;;;5016768;28;20636;-74
2021/07/04 03:07:09;;;;;;;4.22;2.17;;;23.10;96.70;;;;;;5005636;28;20567;-74
2021/07/04 03:09:42;;;;;;;4.03;2.90;;;23.10;96.70;;;;;;5008344;28;20041;-74
2021/07/04 03:12:16;;;;;;;5.47;3.00;;;23.10;96.70;;;;;;5002080;28;20053;-73
2021/07/04 03:14:46;;;;;;;6.57;3.08;;;23.10;96.70;;;;;;5004977;28;20495;-74
2021/07/04 03:17:15;;;;;;;6.20;2.90;;;23.20;96.70;;;;;;4999737;28;20042;-74
2021/07/04 03:19:44;;;;;;;3.90;2.72;;;23.20;96.70;;;;;;4989553;28;20072;-74
2021/07/04 03:22:18;;;;;;;3.28;2.67;;;23.10;96.70;;;;;;5001991;28;20387;-74
2021/07/04 03:24:47;;;;;;;6.22;2.90;;;23.00;96.70;;;;;;5007721;28;20052;-74
2021/07/04 03:27:17;;;;;;;8.30;2.97;;;23.00;96.70;;;;;;4989509;28;20065;-74
2021/07/04 03:29:51;;;;;;;7.60;3.20;;;23.00;96.70;;;;;;5012666;28;20061;-74
2021/07/04 03:32:20;;;;;;;7.90;3.33;;;23.00;96.70;;;;;;5009220;28;20045;-74
2021/07/04 03:34:49;;;;;;;5.32;2.80;;;23.10;96.70;;;;;;5008043;28;20548;-74
2021/07/04 03:37:19;;;;;;;7.60;3.17;;;23.10;96.70;;;;;;5004789;28;20056;-74
2021/07/04 03:39:47;;;;;;;4.63;2.83;;;23.10;96.70;;;;;;5008084;28;20129;-74
2021/07/04 03:42:18;;;;;;;4.75;3.03;;;23.10;96.70;;;;;;5010105;28;20529;-74
2021/07/04 03:44:47;;;;;;;4.72;2.92;;;23.00;96.70;;;;;;5024187;28;20559;-74
2021/07/04 03:47:15;;;;;;;3.30;2.60;;;22.90;96.70;;;;;;5020056;28;20554;-74
2021/07/04 03:49:45;;;;;;;6.70;2.80;;;22.90;96.70;;;;;;5003943;28;20057;-74
2021/07/04 03:52:15;;;;;;;3.65;2.80;;;22.90;96.70;;;;;;5004447;28;20050;-74
2021/07/04 03:54:44;;;;;;;4.53;2.63;;;22.90;96.70;;;;;;5004397;28;20109;-74
2021/07/04 03:57:28;;;;;;;5.13;3.15;;;22.80;96.70;;;;;;5021238;28;20093;-73
2021/07/04 04:00:12;;;;;;;5.05;3.30;;;22.80;96.70;;;;;;5008217;28;20042;-75
2021/07/04 04:02:44;;;;;;;5.10;3.08;;;22.80;96.70;;;;;;5021722;28;20507;-74
2021/07/04 04:05:20;;;;;;;;;;;22.80;96.70;;;;;;5005520;28;20115;-75
2021/07/04 04:07:54;;;;;;;4.63;2.70;;;22.80;96.70;;;;;;5007981;28;20210;-75
2021/07/04 04:10:23;;;;;;;4.93;3.08;;;22.80;96.70;;;;;;5001928;28;20042;-74
2021/07/04 04:12:57;;;;;;;8.57;3.67;;;22.70;96.70;;;;;;5004697;28;20056;-74
2021/07/04 04:15:26;;;;;;;3.67;3.03;;;22.70;96.70;;;;;;5018652;28;20058;-74
2021/07/04 04:17:58;;;;;;;4.57;3.40;;;22.80;96.70;;;;;;4998482;28;20499;-75
2021/07/04 04:20:28;;;;;;;6.40;3.47;;;22.80;96.70;;;;;;5004032;28;20647;-74
2021/07/04 04:22:58;;;;;;;5.95;3.28;;;22.80;96.70;;;;;;5004778;28;20566;-75
2021/07/04 04:25:27;;;;;;;4.13;2.90;;;22.80;96.70;;;;;;5017971;28;20031;-75
2021/07/04 04:28:03;;;;;;;4.55;3.00;;;22.70;96.70;;;;;;5003893;28;20042;-75
2021/07/04 04:30:35;;;;;;;4.47;2.90;;;22.70;96.70;;;;;;5000731;28;20545;-74
2021/07/04 04:33:05;;;;;;;4.50;2.85;;;22.90;96.70;;;;;;5002653;28;20099;-74
2021/07/04 04:35:37;;;;;;;6.78;2.92;;;22.80;96.70;;;;;;5005242;28;20034;-74
2021/07/04 04:38:05;;;;;;;6.30;3.65;;;22.70;96.70;;;;;;5010816;28;20045;-74
2021/07/04 04:40:34;;;;;;;5.95;2.80;;;22.80;96.70;;;;;;5003689;28;20549;-75
2021/07/04 04:43:04;;;;;;;3.50;2.85;;;22.90;96.70;;;;;;5006074;28;20514;-75
2021/07/04 04:45:33;;;;;;;4.88;2.95;;;22.90;96.70;;;;;;5003322;28;20046;-74
2021/07/04 04:48:02;;;;;;;7.35;3.20;;;23.00;96.70;;;;;;5005339;28;20049;-75
2021/07/04 04:50:33;;;;;;;4.88;3.25;;;22.80;96.70;;;;;;4998191;28;20050;-75
2021/07/04 04:53:01;;;;;;;4.30;2.90;;;22.70;96.70;;;;;;5006743;28;20504;-75
2021/07/04 04:55:31;;;;;;;4.35;3.15;;;22.70;96.70;;;;;;5001703;28;20081;-75
2021/07/04 04:58:00;;;;;;;4.18;2.72;;;22.70;96.70;;;;;;5004558;28;20034;-74
2021/07/04 05:00:30;;;;;;;6.90;3.80;;;22.80;96.70;;;;;;4992634;28;20144;-74
2021/07/04 05:03:05;;;;;;;3.55;3.25;;;22.90;96.70;;;;;;5000700;28;20100;-74
2021/07/04 05:05:34;;;;;;;6.57;3.13;;;22.90;96.70;;;;;;5009069;28;20424;-74
2021/07/04 05:08:03;;;;;;;3.92;2.63;;;23.00;96.70;;;;;;4992536;28;20515;-74
2021/07/04 05:10:32;;;;;;;7.72;3.72;;;23.00;96.70;;;;;;5008537;28;20508;-75
2021/07/04 05:13:00;;;;;;;5.22;3.55;;;23.10;96.70;;;;;;5007164;28;20038;-74
2021/07/04 05:15:31;;;;;;;3.70;2.55;;;23.20;96.70;;;;;;5008074;28;20749;-75
2021/07/04 05:18:04;;;;;;;8.10;3.67;;;23.10;96.70;;;;;;5004749;28;20054;-74
2021/07/04 05:20:33;;;;;;;7.47;3.33;;;23.10;96.70;;;;;;5021912;28;20077;-74
2021/07/04 05:23:02;;;;;;;7.68;3.65;;;23.10;96.70;;;;;;5009683;28;20115;-74
2021/07/04 05:25:30;;;;;;;5.97;3.03;;;23.00;96.70;;;;;;5012885;28;20103;-75
2021/07/04 05:27:59;;;;;;;6.22;3.83;;;23.00;96.70;;;;;;5007375;28;20037;-74
2021/07/04 05:30:27;;;;;;;5.90;3.30;;;23.10;96.70;;;;;;5009674;28;20048;-74
2021/07/04 05:32:57;;;;;;;6.30;3.47;;;23.30;96.70;;;;;;5011401;28;20045;-74
2021/07/04 05:35:27;;;;;;;7.45;3.63;;;23.30;96.70;;;;;;5003960;28;20049;-74
2021/07/04 05:37:55;;;;;;;7.63;3.53;;;23.30;96.70;;;;;;5007475;28;20108;-75
2021/07/04 05:40:24;;;;;;;5.18;3.70;;;23.20;96.70;;;;;;5007177;28;20046;-74
2021/07/04 05:42:56;;;;;;;5.90;3.65;;;23.10;96.70;;;;;;5009707;28;20058;-74
2021/07/04 05:45:26;;;;;;;8.75;3.42;;;23.20;96.70;;;;;;5005294;28;20064;-75
2021/07/04 05:47:55;;;;;;;5.70;3.75;;;23.30;96.70;;;;;;5008781;28;20041;-74
2021/07/04 05:50:25;;;;;;;9.50;3.78;;;23.40;96.70;;;;;;5010100;28;20073;-74
2021/07/04 05:52:54;;;;;;;5.97;3.97;;;23.40;96.70;;;;;;5003820;28;20480;-74
2021/07/04 05:55:22;;;;;;;6.10;3.25;;;23.50;96.70;;;;;;5009985;28;20523;-74
2021/07/04 05:57:51;;;;;;;4.25;3.20;;;23.50;96.70;;;;;;5005623;28;20045;-74
2021/07/04 06:00:20;;;;;;;5.60;3.25;;;23.60;96.70;;;;;;5006649;28;20048;-74
2021/07/04 06:02:49;;;;;;;9.52;3.63;;;23.70;96.70;;;;;;5004550;28;20050;-74
2021/07/04 06:05:17;;;;;;;6.18;3.95;;;23.80;96.70;;;;;;5009449;28;20120;-74
2021/07/04 06:07:52;;;;;;;6.40;4.00;;;23.80;96.70;;;;;;5007533;28;20042;-74
2021/07/04 06:10:21;;;;;;;6.95;4.38;;;23.70;96.70;;;;;;5004986;28;20038;-74
2021/07/04 06:12:49;;;;;;;5.80;3.83;;;23.70;96.70;;;;;;5014047;28;20503;-74
2021/07/04 06:15:18;;;;;;;5.85;3.92;;;23.70;96.70;;;;;;5007837;28;20068;-75
2021/07/04 06:17:46;;;;;;;7.97;4.28;;;23.80;96.70;;;;;;5019809;28;20672;-74
2021/07/04 06:20:16;;;;;;;8.45;3.70;;;23.80;96.70;;;;;;5006291;28;20072;-74
2021/07/04 06:22:47;;;;;;;7.13;3.75;;;23.80;96.70;;;;;;5009033;28;20495;-74
2021/07/04 06:25:17;;;;;;;6.93;4.38;;;23.80;96.70;;;;;;5011463;28;20038;-74
2021/07/04 06:27:46;;;;;;;7.30;4.05;;;23.90;96.70;;;;;;4992752;28;20432;-74
2021/07/04 06:30:15;;;;;;;5.22;3.85;;;23.90;96.70;;;;;;5003172;28;20495;-75
2021/07/04 06:32:44;;;;;;;5.70;4.15;;;24.00;96.70;;;;;;5012339;28;20056;-75
2021/07/04 06:35:14;;;;;;;6.72;4.22;;;24.00;96.70;;;;;;5006501;28;20069;-75
2021/07/04 06:37:44;;;;;;;4.93;3.30;;;24.10;96.70;;;;;;5025267;28;20590;-75
2021/07/04 06:40:13;;;;;;;7.15;3.90;;;24.10;96.70;;;;;;4991734;28;20582;-75
2021/07/04 06:42:44;;;;;;;6.85;3.70;;;24.20;96.70;;;;;;5002005;28;20140;-75
2021/07/04 06:45:13;;;;;;;7.38;3.85;;;24.20;96.70;;;;;;5004989;28;20064;-75
2021/07/04 06:47:43;;;;;;;5.03;3.63;;;24.30;96.70;;;;;;5011114;28;20111;-75
2021/07/04 06:50:15;;;;;;;6.60;4.00;;;24.40;96.70;;;;;;5004856;28;20050;-75
2021/07/04 06:52:43;;;;;;;6.72;3.80;;;24.50;96.70;;;;;;5003645;28;20607;-76
2021/07/04 06:55:13;;;;;;;7.47;3.83;;;24.50;96.70;;;;;;5005565;28;20048;-75
2021/07/04 06:57:43;;;;;;;5.72;3.30;;;24.60;96.70;;;;;;5007423;28;20316;-76
2021/07/04 07:00:13;;;;;;;5.82;3.55;;;24.70;96.70;;;;;;5003408;28;20049;-76
2021/07/04 07:02:42;;;;;;;6.85;3.30;;;24.80;96.70;;;;;;5003003;28;20610;-75
2021/07/04 07:05:13;;;;;;;6.35;2.80;;;24.90;96.70;;;;;;4999110;28;20136;-75
2021/07/04 07:07:42;;;;;;;6.18;3.10;;;24.80;96.70;;;;;;5005252;28;20046;-75
2021/07/04 07:10:13;;;;;;;5.53;3.03;;;24.80;96.70;;;;;;5004238;28;20049;-75
2021/07/04 07:12:47;;;;;;;7.28;3.30;;;24.90;96.70;;;;;;5000547;28;20411;-76
2021/07/04 07:15:18;;;;;;;5.05;2.72;;;24.80;96.70;;;;;;5001222;28;20061;-75
2021/07/04 07:17:46;;;;;;;5.13;3.10;;;24.90;96.70;;;;;;5003364;28;20056;-75
2021/07/04 07:20:16;;;;;;;5.88;3.33;;;25.10;96.70;;;;;;5006969;28;20041;-76
2021/07/04 07:22:45;;;;;;;4.75;2.83;;;25.20;96.70;;;;;;5002775;28;20133;-75
2021/07/04 07:25:21;;;;;;;5.85;3.20;;;25.40;96.70;;;;;;5006450;28;20045;-76
2021/07/04 07:27:54;;;;;;;4.70;2.80;;;25.50;96.70;;;;;;5006648;28;20452;-76
2021/07/04 07:30:23;;;;;;;3.55;2.45;;;25.50;96.70;;;;;;5001867;28;20045;-75
2021/07/04 07:32:53;;;;;;;3.63;2.53;;;25.60;96.70;;;;;;5003136;28;20084;-76
2021/07/04 07:35:21;;;;;;;6.32;2.90;;;25.60;96.70;;;;;;5003765;28;20052;-75
2021/07/04 07:37:56;;;;;;;4.68;2.97;;;25.60;96.70;;;;;;5004654;28;20055;-76
2021/07/04 07:40:24;;;;;;;5.15;2.60;;;25.60;96.70;;;;;;5004458;28;20496;-73
2021/07/04 07:42:55;;;;;;;4.35;2.47;;;25.60;96.70;;;;;;5003179;28;20037;-73
2021/07/04 07:45:24;;;;;;;5.43;2.67;;;25.50;96.70;;;;;;5022051;28;20042;-73
2021/07/04 07:47:59;;;;;;;3.95;2.55;;;25.50;96.70;;;;;;5003520;28;20212;-73
2021/07/04 07:50:41;;;;;;;4.40;2.70;;;25.60;96.70;;;;;;4988923;28;20092;-73
2021/07/04 07:53:12;;;;;;;5.32;2.53;;;25.60;96.70;;;;;;5001687;28;20041;-73
2021/07/04 07:55:40;;;;;;;6.10;3.05;;;25.60;96.70;;;;;;5006261;28;20065;-73
2021/07/04 07:58:11;;;;;;;3.60;3.05;;;25.70;96.70;;;;;;5007517;28;20404;-73
2021/07/04 08:00:39;;;;;;;5.20;2.97;;;25.80;96.70;;;;;;4999637;28;20049;-73
2021/07/04 08:03:08;;;;;;;5.75;2.78;;;25.90;96.70;;;;;;5002665;28;20090;-73
2021/07/04 08:05:36;;;;;;;6.03;2.67;;;26.00;96.70;;;;;;5006055;28;20049;-74
2021/07/04 08:08:05;;;;;;;3.45;2.47;;;26.00;96.70;;;;;;5008849;28;20077;-74
2021/07/04 08:10:36;;;;;;;4.68;2.42;;;26.10;96.70;;;;;;5007271;28;20075;-74
2021/07/04 08:13:04;;;;;;;4.88;2.45;;;26.10;96.70;;;;;;5004729;28;20145;-74
2021/07/04 08:15:35;;;;;;;6.20;2.47;;;26.20;96.70;;;;;;5000992;28;20573;-74
2021/07/04 08:18:07;;;;;;;3.85;2.10;;;26.20;96.70;;;;;;5010567;28;20065;-74
2021/07/04 08:20:35;;;;;;;3.85;2.20;;;26.40;96.70;;;;;;5002460;28;20144;-74
2021/07/04 08:23:04;;;;;;;4.63;2.42;;;26.50;96.70;;;;;;5004134;28;20053;-74
2021/07/04 08:25:32;;;;;;;4.13;2.60;;;26.40;96.70;;;;;;5003239;28;20056;-74
2021/07/04 08:28:01;;;;;;;2.97;2.15;;;26.30;96.70;;;;;;5003469;28;20038;-74
2021/07/04 08:30:29;;;;;;;5.85;2.58;;;26.40;96.70;;;;;;5004203;28;20052;-74
2021/07/04 08:33:04;;;;;;;4.40;2.47;;;26.40;96.70;;;;;;5006968;28;20112;-74
2021/07/04 08:35:32;;;;;;;3.10;2.35;;;26.60;96.70;;;;;;5002095;28;20042;-74
2021/07/04 08:38:01;;;;;;;6.25;2.92;;;26.80;96.70;;;;;;5004837;28;20040;-74
2021/07/04 08:40:29;;;;;;;3.22;2.10;;;26.90;96.70;;;;;;5010631;28;20151;-74
2021/07/04 08:42:58;;;;;;;4.03;2.00;;;26.80;96.70;;;;;;5011648;28;20051;-74
2021/07/04 08:45:26;;;;;;;5.72;2.40;;;26.80;96.70;;;;;;5005532;28;20033;-74
2021/07/04 08:47:55;;;;;;;4.55;2.10;;;26.90;96.70;;;;;;5006313;28;20037;-74
2021/07/04 08:50:25;;;;;;;4.20;2.45;;;27.00;96.70;;;;;;5004100;28;20512;-74
2021/07/04 08:52:53;;;;;;;5.30;2.42;;;27.20;96.70;;;;;;4993138;28;20042;-75
2021/07/04 08:55:21;;;;;;;6.05;2.47;;;27.10;96.70;;;;;;5002485;28;20404;-75
2021/07/04 08:57:50;;;;;;;4.15;1.90;;;27.10;96.70;;;;;;5013891;28;21100;-73
2021/07/04 09:00:19;;;;;;;4.03;2.40;;;27.20;96.70;;;;;;5006996;28;20122;-74
2021/07/04 09:02:47;;;;;;;3.15;2.30;;;27.20;96.70;;;;;;5010438;28;20076;-74
2021/07/04 09:05:16;;;;;;;4.82;2.40;;;27.40;96.70;;;;;;5012796;28;20076;-75
2021/07/04 09:07:46;;;;;;;6.35;2.70;;;27.50;96.70;;;;;;5008355;28;20845;-74
2021/07/04 09:10:18;;;;;;;4.97;2.60;;;27.50;96.70;;;;;;5007888;28;20057;-74
2021/07/04 09:12:49;;;;;;;5.63;2.13;;;27.60;96.70;;;;;;5003487;28;20521;-74
2021/07/04 09:15:20;;;;;;;7.50;2.10;;;27.60;96.70;;;;;;5020389;28;20046;-75
2021/07/04 09:17:51;;;;;;;5.45;2.42;;;27.50;96.70;;;;;;5005916;28;20046;-75
2021/07/04 09:20:21;;;;;;;3.55;2.20;;;27.60;96.70;;;;;;5011069;28;20491;-75
2021/07/04 09:22:54;;;;;;;3.90;2.00;;;27.70;96.70;;;;;;5021773;28;20045;-76
2021/07/04 09:25:24;;;;;;;4.10;1.85;;;27.80;95.80;;;;;;5010912;28;20136;-76
2021/07/04 09:28:05;;;;;;;3.17;1.80;;;27.90;95.80;;;;;;5005096;28;20050;-76
2021/07/04 09:30:36;;;;;;;6.20;2.25;;;28.10;95.30;;;;;;5012468;28;20049;-75
2021/07/04 09:33:14;;;;;;;5.78;2.38;;;28.20;95.10;;;;;;5011249;28;20091;-75
2021/07/04 09:35:53;;;;;;;5.15;1.90;;;28.20;94.90;;;;;;5007422;28;20053;-75
2021/07/04 09:38:25;;;;;;;3.17;2.10;;;28.10;95.20;;;;;;5008237;28;20143;-76
2021/07/04 09:40:53;;;;;;;4.22;1.88;;;28.20;95.60;;;;;;5006937;28;20536;-76
2021/07/04 09:43:22;;;;;;;4.32;2.20;;;28.20;93.40;;;;;;5013896;28;20052;-79
2021/07/04 09:45:53;;;;;;;5.25;1.83;;;28.30;93.60;;;;;;5006181;28;20692;-78
2021/07/04 09:48:36;;;;;;;3.08;2.10;;;28.20;93.40;;;;;;5006556;28;20057;-77
2021/07/04 09:51:10;;;;;;;3.25;1.80;;;28.30;93.10;;;;;;4992700;28;20472;-76
2021/07/04 09:53:44;;;;;;;2.40;1.90;;;28.30;92.90;;;;;;5010862;28;20042;-76
2021/07/04 09:56:15;;;;;;;4.32;2.58;;;28.40;92.80;;;;;;5004028;28;20041;-77
2021/07/04 09:58:45;;;;;;;4.30;1.77;;;28.40;92.80;;;;;;5006899;28;20050;-77
2021/07/04 10:01:32;;;;;;;2.85;1.88;;;28.40;92.80;;;;;;5002827;28;20052;-77
2021/07/04 10:04:03;;;;;;;4.13;2.20;;;28.20;92.10;;;;;;5005845;28;20464;-75
2021/07/04 10:06:45;;;;;;;4.05;1.92;;;28.20;92.00;;;;;;5007793;28;20581;-75
2021/07/04 10:09:17;;;;;;;3.72;1.85;;;28.10;91.80;;;;;;4998365;28;20046;-75
2021/07/04 10:11:46;;;;;;;3.03;1.67;;;28.20;92.20;;;;;;5003332;28;20042;-77
2021/07/04 10:14:14;;;;;;;3.58;1.67;;;28.30;91.30;;;;;;5021777;28;20048;-76
2021/07/04 10:16:45;;;;;;;3.78;1.63;;;28.20;88.80;;;;;;5001546;28;20052;-76
2021/07/04 10:19:17;;;;;;;3.05;1.60;;;28.20;89.30;;;;;;5010217;28;20769;-76
2021/07/04 10:21:48;;;;;;;2.97;1.67;;;28.30;90.00;;;;;;5004884;28;20121;-76
2021/07/04 10:24:20;;;;;;;2.10;1.40;;;28.30;90.90;;;;;;5006553;28;20041;-75
2021/07/04 10:26:52;;;;;;;2.97;1.73;;;28.20;89.30;;;;;;5004673;28;20492;-75
2021/07/04 10:29:25;;;;;;;2.85;1.55;;;28.20;90.60;;;;;;5001307;28;20054;-75
2021/07/04 10:31:54;;;;;;;4.60;1.75;;;28.10;91.40;;;;;;5020536;28;20459;-75
2021/07/04 10:34:27;;;;;;;4.38;2.35;;;28.20;91.50;;;;;;5010759;28;20041;-75
2021/07/04 10:36:57;;;;;;;4.63;1.73;;;28.30;91.60;;;;;;4999638;28;20557;-75
2021/07/04 10:39:29;;;;;;;3.00;1.65;;;28.50;89.40;;;;;;5001276;28;20046;-75
2021/07/04 10:42:00;;;;;;;3.88;1.92;;;28.50;88.90;;;;;;5008720;28;20046;-74
2021/07/04 10:44:41;;;;;;;2.92;1.45;;;28.70;88.70;;;;;;5010303;28;20029;-75
2021/07/04 10:47:12;;;;;;;2.65;1.70;;;28.80;86.20;;;;;;5007619;28;20608;-74
2021/07/04 10:49:47;;;;;;;4.60;2.00;;;28.90;86.20;;;;;;5005678;28;20073;-74
2021/07/04 10:52:35;;;;;;;3.30;1.50;;;28.80;86.20;;;;;;5010051;28;20132;-75
2021/07/04 10:55:09;;;;;;;4.90;2.10;;;28.80;87.80;;;;;;5004790;28;20419;-74
2021/07/04 10:57:53;;;;;;;4.80;2.00;;;29.00;86.70;;;;;;5013987;28;20045;-74
2021/07/04 11:00:25;;;;;;;4.32;2.67;;;29.00;87.40;;;;;;5008901;28;20076;-74
2021/07/04 11:02:57;;;;;;;2.85;1.73;;;29.20;87.50;;;;;;5003788;28;20053;-75
2021/07/04 11:05:45;;;;;;;5.45;4.13;;;29.10;86.10;;;;;;5004712;28;20100;-74
2021/07/04 11:08:16;;;;;;;4.70;2.47;;;29.00;87.40;;;;;;5007222;28;20826;-75
2021/07/04 11:11:01;;;;;;;2.97;2.20;;;28.90;87.60;;;;;;5008869;28;20046;-74
2021/07/04 11:13:35;;;;;;;4.30;2.15;;;29.10;88.30;;;;;;5002238;28;20050;-74
2021/07/04 11:16:09;;;;;;;3.47;1.55;;;29.10;88.00;;;;;;5013177;28;20533;-74
2021/07/04 11:18:44;;;;;;;2.58;1.77;;;28.90;87.80;;;;;;5020386;28;20061;-74
2021/07/04 11:21:15;;;;;;;3.17;1.80;;;28.90;88.90;;;;;;5009096;28;20038;-74
2021/07/04 11:23:43;;;;;;;3.25;1.77;;;28.80;89.50;;;;;;5005017;28;20048;-74
2021/07/04 11:26:16;;;;;;;4.30;1.95;;;28.70;89.90;;;;;;5010557;28;20041;-74
2021/07/04 11:28:46;;;;;;;3.70;2.13;;;28.60;90.60;;;;;;5004234;28;20041;-74
2021/07/04 11:31:27;;;;;;;5.40;2.08;;;28.50;91.90;;;;;;5001401;28;20475;-74
2021/07/04 11:34:05;;;;;;;3.60;2.40;;;28.50;91.70;;;;;;5006594;28;20083;-74
2021/07/04 11:36:33;;;;;;;4.18;2.20;;;28.50;92.50;;;;;;5005075;28;20060;-74
2021/07/04 11:39:07;;;;;;;6.22;2.58;;;28.40;93.00;;;;;;5007615;28;20296;-74
2021/07/04 11:41:40;;;;;;;4.47;2.03;;;28.30;92.90;;;;;;5008393;28;20033;-74
2021/07/04 11:44:11;;;;;;;3.35;2.22;;;28.50;93.00;;;;;;5003259;28;20050;-74
2021/07/04 11:46:42;;;;;;;3.45;2.42;;;28.50;93.30;;;;;;5008115;28;20046;-74
2021/07/04 11:49:11;;;;;;;4.85;2.55;;;28.70;92.50;;;;;;5009754;28;20566;-74
2021/07/04 11:51:50;;;;;;;4.78;2.25;;;28.80;92.50;;;;;;5009150;28;20456;-74
2021/07/04 11:54:19;;;;;;;3.35;2.20;;;29.00;92.30;;;;;;5011292;28;20533;-74
2021/07/04 11:56:51;;;;;;;6.72;3.13;;;29.10;92.20;;;;;;5004656;28;20057;-74
2021/07/04 11:59:21;;;;;;;4.75;2.60;;;29.20;92.20;;;;;;5025409;28;20132;-74
2021/07/04 12:01:55;;;;;;;3.03;2.40;;;29.20;92.00;;;;;;5005220;28;20120;-74
2021/07/04 12:04:32;;;;;;;4.10;2.58;;;29.20;92.20;;;;;;5018529;28;20534;-74
2021/07/04 12:07:04;;;;;;;5.68;2.63;;;29.10;92.60;;;;;;5003173;28;20041;-74
2021/07/04 12:09:38;;;;;;;3.78;2.30;;;29.00;92.90;;;;;;5010456;28;20042;-74
2021/07/04 12:12:15;;;;;;;2.65;2.05;;;29.00;93.20;;;;;;5003847;28;21167;-74
2021/07/04 12:14:44;;;;;;;2.47;2.17;;;29.00;92.70;;;;;;5004378;28;20046;-74
2021/07/04 12:17:36;;;;;;;4.63;2.47;;;28.90;92.70;;;;;;5008455;28;20136;-74
2021/07/04 12:20:08;;;;;;;5.65;2.60;;;28.80;92.20;;;;;;5007376;28;20085;-74
2021/07/04 12:22:40;;;;;;;3.70;2.30;;;28.70;92.50;;;;;;5011810;28;20045;-74
2021/07/04 12:25:13;;;;;;;3.95;2.58;;;28.60;92.70;;;;;;5009296;28;20042;-74
2021/07/04 12:27:44;;;;;;;4.18;2.63;;;28.50;93.40;;;;;;5012388;28;20045;-75
2021/07/04 12:30:25;;;;;;;4.30;2.60;;;28.40;93.70;;;;;;5010520;28;20132;-74
2021/07/04 12:32:59;;;;;;;4.78;2.45;;;28.20;94.10;;;;;;5008688;28;20536;-74
2021/07/04 12:35:31;;;;;;;3.15;2.45;;;28.00;94.60;;;;;;5008038;28;20054;-74
2021/07/04 12:38:02;;;;;;;3.40;2.53;;;27.90;96.20;;;;;;5011747;28;20100;-74
2021/07/04 12:40:34;;;;;;;4.78;2.10;;;27.80;96.40;;;;;;5007685;28;20447;-74
2021/07/04 12:43:12;;;;;;;2.83;2.40;;;27.70;96.70;;;;;;5013495;28;20054;-74
2021/07/04 12:45:46;;;;;;;5.68;2.10;;;27.60;96.70;;;;;;5013579;28;20041;-74
2021/07/04 12:48:16;;;;;;;2.70;1.83;;;27.60;96.70;;;;;;5005856;28;20061;-74
2021/07/04 12:50:53;;;;;;;3.67;2.53;;;27.40;96.70;;;;;;5026502;28;20078;-74
2021/07/04 12:53:32;;;;;;;5.30;2.00;;;27.30;96.70;;;;;;5022793;28;20052;-74
2021/07/04 12:56:00;;;;;;;8.25;2.22;;;27.20;96.70;;;;;;5023230;28;20450;-74
2021/07/04 12:58:33;;;;;;;4.05;2.05;;;27.10;96.70;;;;;;5007057;28;20034;-74
2021/07/04 13:01:17;;;;;;;3.63;2.20;;;26.80;96.70;;;;;;4995682;28;20120;-74
2021/07/04 13:03:52;;;;;;;4.65;1.95;;;26.70;96.70;;;;;;5023556;28;20559;-74
2021/07/04 13:06:51;;;;;;;2.92;2.00;;;26.50;96.70;;;;;;4993226;28;20042;-74
2021/07/04 13:09:22;;;;;;;3.22;2.25;;;26.50;96.70;;;;;;5011687;28;20044;-74
2021/07/04 13:12:01;;;;;;;4.10;2.20;;;26.40;96.70;;;;;;5008203;28;20050;-75